Terminal Aerodrome Forecast
Issued by NWS

Home | Current Version | Previous Version | Text Only | Print | Product List | Glossary Off
Versions: 1 2 3 4 5 6 7 8 9 10 11 12 13 14 15 16 17 18 19 20

000
FTUS43 KMPX 191100
TAFRWF
TAF
KRWF 191120Z 1912/2012 18011KT P6SM SCT060
     FM191500 22010KT P6SM SCT050 BKN250
     FM200200 17004KT P6SM SCT100 BKN200=

USA.gov is the U.S. government's official web portal to all federal, state and local government web resources and services.